createdAt,value
2018-08-27T00:00:03.869Z,6.85
2018-08-27T00:01:03.835Z,6.84
2018-08-27T00:02:03.802Z,6.89
2018-08-27T00:03:03.762Z,6.79
2018-08-27T00:04:03.719Z,6.79
2018-08-27T00:05:03.683Z,6.95
2018-08-27T00:06:03.642Z,7.02
2018-08-27T00:07:03.595Z,7.05
2018-08-27T00:08:03.562Z,7.07
2018-08-27T00:09:03.525Z,7.05
2018-08-27T00:10:03.484Z,6.98
2018-08-27T00:11:03.462Z,7.02
2018-08-27T00:12:03.402Z,6.91
2018-08-27T00:13:03.362Z,6.80
2018-08-27T00:14:03.314Z,6.84
2018-08-27T00:15:03.286Z,6.88
2018-08-27T00:16:03.236Z,6.81
2018-08-27T00:17:03.262Z,6.84
2018-08-27T00:18:03.171Z,6.74
2018-08-27T00:19:03.126Z,6.67
2018-08-27T00:20:03.088Z,6.66
2018-08-27T00:21:03.040Z,6.71
2018-08-27T00:22:03.004Z,6.64
2018-08-27T00:23:02.967Z,6.69
2018-08-27T00:24:02.915Z,6.73
2018-08-27T00:25:02.891Z,6.61
2018-08-27T00:26:02.849Z,6.66
2018-08-27T00:27:02.798Z,6.66
2018-08-27T00:28:02.770Z,6.54
2018-08-27T00:29:02.722Z,6.66
2018-08-27T00:30:02.683Z,6.69
2018-08-27T00:31:02.640Z,6.64
2018-08-27T00:32:02.595Z,6.59
2018-08-27T00:33:02.557Z,6.37
2018-08-27T00:34:02.521Z,6.46
2018-08-27T00:35:02.520Z,6.37
2018-08-27T00:36:02.461Z,6.43
2018-08-27T00:37:02.397Z,6.37
2018-08-27T00:38:02.352Z,6.40
2018-08-27T00:39:02.350Z,6.48
2018-08-27T00:40:02.301Z,6.58
2018-08-27T00:41:02.235Z,6.43
2018-08-27T00:42:02.228Z,6.40
2018-08-27T00:43:02.166Z,6.52
2018-08-27T00:44:02.128Z,6.62
2018-08-27T00:45:02.090Z,6.48
2018-08-27T00:46:02.055Z,6.55
2018-08-27T00:47:01.996Z,6.62
2018-08-27T00:48:01.961Z,6.64
2018-08-27T00:49:01.940Z,6.61
2018-08-27T00:50:01.886Z,6.67
2018-08-27T00:51:01.863Z,6.77
2018-08-27T00:52:01.795Z,6.87
2018-08-27T00:53:01.769Z,6.92
2018-08-27T00:54:01.936Z,7.02
2018-08-27T00:55:01.678Z,6.99
2018-08-27T00:56:01.636Z,6.92
2018-08-27T00:57:01.604Z,6.94
2018-08-27T00:58:01.567Z,6.97
2018-08-27T00:59:01.524Z,6.87
2018-08-27T01:00:01.476Z,6.99
2018-08-27T01:01:01.448Z,7.02
2018-08-27T01:02:01.411Z,7.07
2018-08-27T01:03:01.368Z,7.12
2018-08-27T01:04:01.335Z,7.12
2018-08-27T01:05:01.321Z,7.07
2018-08-27T01:06:01.256Z,7.09
2018-08-27T01:07:01.195Z,7.21
2018-08-27T01:08:01.192Z,7.27
2018-08-27T01:09:01.125Z,7.17
2018-08-27T01:10:01.115Z,7.09
2018-08-27T01:11:01.040Z,6.99
2018-08-27T01:12:00.990Z,7.06
2018-08-27T01:13:00.950Z,6.99
2018-08-27T01:14:00.926Z,7.02
2018-08-27T01:15:00.871Z,6.95
2018-08-27T01:16:00.829Z,6.95
2018-08-27T01:17:00.786Z,6.98
2018-08-27T01:18:00.753Z,7.05
2018-08-27T01:19:00.750Z,7.03
2018-08-27T01:20:00.683Z,7.03
2018-08-27T01:21:00.694Z,7.02
2018-08-27T01:22:00.620Z,6.97
2018-08-27T01:23:00.554Z,6.99
2018-08-27T01:24:00.517Z,7.03
2018-08-27T01:25:00.471Z,7.02
2018-08-27T01:26:00.431Z,7.03
2018-08-27T01:27:00.417Z,7.02
2018-08-27T01:28:00.355Z,6.98
2018-08-27T01:29:00.327Z,7.07
2018-08-27T01:30:00.295Z,7.07
2018-08-27T01:31:00.236Z,7.06
2018-08-27T01:32:00.196Z,7.12
2018-08-27T01:33:00.171Z,7.12
2018-08-27T01:34:00.128Z,7.12
2018-08-27T01:35:00.068Z,7.05
2018-08-27T01:36:00.044Z,7.09
2018-08-27T01:36:59.990Z,7.09
2018-08-27T01:37:59.962Z,7.07
2018-08-27T01:38:59.927Z,7.10
2018-08-27T01:39:59.878Z,7.03
2018-08-27T01:40:59.864Z,7.10
2018-08-27T01:41:59.794Z,7.02
2018-08-27T01:42:59.777Z,6.91
2018-08-27T01:43:59.727Z,6.89
2018-08-27T01:44:59.769Z,6.89
2018-08-27T01:45:59.624Z,6.94
2018-08-27T01:46:59.606Z,6.97
2018-08-27T01:47:59.546Z,6.91
2018-08-27T01:48:59.520Z,6.91
2018-08-27T01:49:59.468Z,6.97
2018-08-27T01:50:59.461Z,7.02
2018-08-27T01:51:59.388Z,6.89
2018-08-27T01:52:59.354Z,6.92
2018-08-27T01:53:59.326Z,6.85
2018-08-27T01:54:59.293Z,6.91
2018-08-27T01:55:59.271Z,6.87
2018-08-27T01:56:59.198Z,6.84
2018-08-27T01:57:59.184Z,6.88
2018-08-27T01:58:59.123Z,6.91
2018-08-27T01:59:59.099Z,6.81
2018-08-27T02:00:59.029Z,6.85
2018-08-27T02:01:59.018Z,6.85
2018-08-27T02:02:58.947Z,6.87
2018-08-27T02:03:58.923Z,6.81
2018-08-27T02:04:58.895Z,6.88
2018-08-27T02:05:58.855Z,6.94
2018-08-27T02:06:58.813Z,6.89
2018-08-27T02:07:58.748Z,6.81
2018-08-27T02:08:58.705Z,6.84
2018-08-27T02:09:58.675Z,6.91
2018-08-27T02:10:59.215Z,6.69
2018-08-27T02:11:58.609Z,6.66
2018-08-27T02:12:58.558Z,6.73
2018-08-27T02:13:58.523Z,6.64
2018-08-27T02:14:58.490Z,6.71
2018-08-27T02:15:58.459Z,6.77
2018-08-27T02:16:58.406Z,6.84
2018-08-27T02:17:58.377Z,6.81
2018-08-27T02:18:58.322Z,6.89
2018-08-27T02:19:58.274Z,6.87
2018-08-27T02:20:58.366Z,6.74
2018-08-27T02:21:58.224Z,6.71
2018-08-27T02:22:58.147Z,6.69
2018-08-27T02:23:58.117Z,6.55
2018-08-27T02:24:58.073Z,6.55
2018-08-27T02:25:58.128Z,6.56
2018-08-27T02:26:57.984Z,6.54
2018-08-27T02:27:57.947Z,6.59
2018-08-27T02:28:57.915Z,6.54
2018-08-27T02:29:57.882Z,6.51
2018-08-27T02:30:57.832Z,6.48
2018-08-27T02:31:57.786Z,6.43
2018-08-27T02:32:57.757Z,6.27
2018-08-27T02:34:00.298Z,6.38
2018-08-27T02:34:57.730Z,6.40
2018-08-27T02:35:57.633Z,6.44
2018-08-27T02:36:57.602Z,6.44
2018-08-27T02:37:57.561Z,6.46
2018-08-27T02:38:57.500Z,6.43
2018-08-27T02:39:57.481Z,6.52
2018-08-27T02:40:57.449Z,6.59
2018-08-27T02:41:57.393Z,6.56
2018-08-27T02:42:57.359Z,6.59
2018-08-27T02:43:57.309Z,6.52
2018-08-27T02:44:57.263Z,6.49
2018-08-27T02:45:57.246Z,6.38
2018-08-27T02:46:57.179Z,6.43
2018-08-27T02:47:57.175Z,6.54
2018-08-27T02:48:57.107Z,6.62
2018-08-27T02:49:57.077Z,6.69
2018-08-27T02:50:57.026Z,6.56
2018-08-27T02:51:56.991Z,6.55
2018-08-27T02:52:56.977Z,6.55
2018-08-27T02:53:56.902Z,6.40
2018-08-27T02:54:56.882Z,6.52
2018-08-27T02:55:56.837Z,6.41
2018-08-27T02:56:56.791Z,6.52
2018-08-27T02:57:56.754Z,6.66
2018-08-27T02:58:56.713Z,6.58
2018-08-27T02:59:56.661Z,6.59
2018-08-27T03:00:56.620Z,6.54
2018-08-27T03:01:56.592Z,6.61
2018-08-27T03:02:56.586Z,6.52
2018-08-27T03:03:56.511Z,6.62
2018-08-27T03:04:56.471Z,6.71
2018-08-27T03:05:56.551Z,6.64
2018-08-27T03:06:56.512Z,6.69
2018-08-27T03:07:56.345Z,6.67
2018-08-27T03:08:56.328Z,6.66
2018-08-27T03:09:56.277Z,6.70
2018-08-27T03:10:56.230Z,6.62
2018-08-27T03:11:56.235Z,6.71
2018-08-27T03:12:56.161Z,6.71
2018-08-27T03:13:56.097Z,6.64
2018-08-27T03:14:56.066Z,6.55
2018-08-27T03:15:56.023Z,6.55
2018-08-27T03:16:55.987Z,6.44
2018-08-27T03:17:55.950Z,6.52
2018-08-27T03:18:55.900Z,6.51
2018-08-27T03:19:55.876Z,6.41
2018-08-27T03:20:55.815Z,6.62
2018-08-27T03:21:55.775Z,6.73
2018-08-27T03:22:55.814Z,6.69
2018-08-27T03:23:55.689Z,6.77
2018-08-27T03:24:55.713Z,6.94
2018-08-27T03:25:55.615Z,6.92
2018-08-27T03:26:55.568Z,6.99
2018-08-27T03:27:55.537Z,7.27
2018-08-27T03:28:55.488Z,7.28
2018-08-27T03:29:55.485Z,7.16
2018-08-27T03:30:55.403Z,7.20
2018-08-27T03:31:55.375Z,7.10
2018-08-27T03:32:55.341Z,7.15
2018-08-27T03:33:55.319Z,7.12
2018-08-27T03:34:55.246Z,7.10
2018-08-27T03:35:55.211Z,7.09
2018-08-27T03:36:55.169Z,7.09
2018-08-27T03:37:55.127Z,7.25
2018-08-27T03:38:55.085Z,7.24
2018-08-27T03:39:55.065Z,7.30
2018-08-27T03:40:55.018Z,7.24
2018-08-27T03:41:54.976Z,7.17
2018-08-27T03:42:54.929Z,7.17
2018-08-27T03:43:54.955Z,7.27
2018-08-27T03:44:54.853Z,7.23
2018-08-27T03:45:54.822Z,7.13
2018-08-27T03:46:54.776Z,7.17
2018-08-27T03:47:54.730Z,7.25
2018-08-27T03:48:54.686Z,7.23
2018-08-27T03:49:54.723Z,7.42
2018-08-27T03:50:54.636Z,7.46
2018-08-27T03:51:54.569Z,7.45
2018-08-27T03:52:54.538Z,7.53
2018-08-27T03:53:54.493Z,7.46
2018-08-27T03:54:54.453Z,7.69
2018-08-27T03:55:54.416Z,7.68
2018-08-27T03:56:54.385Z,7.75
2018-08-27T03:57:54.329Z,7.74
2018-08-27T03:58:54.295Z,7.72
2018-08-27T03:59:54.256Z,7.69
2018-08-27T04:00:54.238Z,7.87
2018-08-27T04:01:54.199Z,7.82
2018-08-27T04:02:54.120Z,7.86
2018-08-27T04:03:54.074Z,7.89
2018-08-27T04:04:54.048Z,7.97
2018-08-27T04:05:54.004Z,8.05
2018-08-27T04:06:54.027Z,8.25
2018-08-27T04:07:53.925Z,8.44
2018-08-27T04:08:53.889Z,8.50
2018-08-27T04:09:53.834Z,8.47
2018-08-27T04:10:53.813Z,8.37
2018-08-27T04:11:53.781Z,8.44
2018-08-27T04:12:53.736Z,8.36
2018-08-27T04:13:53.687Z,8.48
2018-08-27T04:14:53.706Z,8.38
2018-08-27T04:15:53.613Z,8.37
2018-08-27T04:16:53.559Z,8.25
2018-08-27T04:17:53.513Z,8.28
2018-08-27T04:18:53.477Z,8.34
2018-08-27T04:19:53.442Z,8.40
2018-08-27T04:20:53.420Z,8.37
2018-08-27T04:21:53.368Z,8.40
2018-08-27T04:22:53.344Z,8.38
2018-08-27T04:23:53.318Z,8.44
2018-08-27T04:24:53.270Z,8.28
2018-08-27T04:25:53.272Z,8.28
2018-08-27T04:26:53.234Z,8.48
2018-08-27T04:27:53.135Z,8.58
2018-08-27T04:28:53.185Z,8.63
2018-08-27T04:29:53.042Z,8.80
2018-08-27T04:30:53.027Z,8.87
2018-08-27T04:31:52.961Z,8.87
2018-08-27T04:32:52.947Z,8.98
2018-08-27T04:33:52.895Z,9.08
2018-08-27T04:34:52.873Z,9.18
2018-08-27T04:35:52.833Z,9.35
2018-08-27T04:36:52.768Z,9.36
2018-08-27T04:37:52.754Z,9.51
2018-08-27T04:38:52.753Z,9.53
2018-08-27T04:39:52.669Z,9.74
2018-08-27T04:40:52.616Z,9.66
2018-08-27T04:41:52.578Z,9.78
2018-08-27T04:42:52.534Z,9.83
2018-08-27T04:43:57.296Z,9.89
2018-08-27T04:44:52.480Z,9.97
2018-08-27T04:45:52.467Z,10.05
2018-08-27T04:46:52.398Z,10.09
2018-08-27T04:47:52.357Z,10.23
2018-08-27T04:48:52.323Z,10.22
2018-08-27T04:49:52.249Z,10.25
2018-08-27T04:50:52.285Z,10.40
2018-08-27T04:51:52.183Z,10.53
2018-08-27T04:52:52.168Z,10.79
2018-08-27T04:53:52.108Z,11.17
2018-08-27T04:54:52.076Z,11.43
2018-08-27T04:55:52.056Z,11.80
2018-08-27T04:56:51.966Z,12.14
2018-08-27T04:57:51.948Z,12.27
2018-08-27T04:58:51.917Z,12.38
2018-08-27T04:59:51.879Z,12.50
2018-08-27T05:00:51.877Z,12.78
2018-08-27T05:01:51.952Z,13.17
2018-08-27T05:02:51.761Z,13.32
2018-08-27T05:03:51.739Z,13.55
2018-08-27T05:04:51.682Z,13.67
2018-08-27T05:05:51.648Z,13.82
2018-08-27T05:06:51.612Z,13.99
2018-08-27T05:07:51.572Z,14.18
2018-08-27T05:08:51.530Z,14.29
2018-08-27T05:09:51.555Z,14.40
2018-08-27T05:10:51.454Z,14.52
2018-08-27T05:11:51.415Z,14.69
2018-08-27T05:12:51.412Z,14.86
2018-08-27T05:13:51.359Z,14.69
2018-08-27T05:14:51.310Z,14.78
2018-08-27T05:15:51.284Z,14.81
2018-08-27T05:16:51.223Z,14.92
2018-08-27T05:17:51.224Z,14.81
2018-08-27T05:18:51.173Z,14.94
2018-08-27T05:19:51.128Z,14.94
2018-08-27T05:20:51.088Z,14.91
2018-08-27T05:21:51.063Z,14.89
2018-08-27T05:22:51.037Z,14.88
2018-08-27T05:23:50.974Z,14.91
2018-08-27T05:24:50.934Z,15.01
2018-08-27T05:25:50.923Z,15.02
2018-08-27T05:26:50.849Z,15.06
2018-08-27T05:27:50.824Z,15.07
2018-08-27T05:28:50.797Z,15.09
2018-08-27T05:29:50.762Z,15.10
2018-08-27T05:30:50.737Z,15.14
2018-08-27T05:31:50.695Z,15.28
2018-08-27T05:32:50.640Z,15.46
2018-08-27T05:33:50.598Z,15.41
2018-08-27T05:34:50.555Z,15.50
2018-08-27T05:35:50.518Z,15.59
2018-08-27T05:36:50.494Z,15.59
2018-08-27T05:37:50.443Z,15.65
2018-08-27T05:38:50.409Z,15.82
2018-08-27T05:39:50.393Z,15.86
2018-08-27T05:40:50.338Z,15.90
2018-08-27T05:41:50.322Z,15.97
2018-08-27T05:42:50.299Z,16.00
2018-08-27T05:43:50.270Z,16.21
2018-08-27T05:44:50.199Z,16.20
2018-08-27T05:45:50.186Z,16.28
2018-08-27T05:46:50.123Z,16.35
2018-08-27T05:47:50.202Z,16.33
2018-08-27T05:48:50.063Z,16.43
2018-08-27T05:49:50.021Z,16.38
2018-08-27T05:50:50.094Z,16.35
2018-08-27T05:51:49.944Z,16.41
2018-08-27T05:52:49.906Z,16.48
2018-08-27T05:53:49.893Z,16.50
2018-08-27T05:54:49.839Z,16.46
2018-08-27T05:55:49.822Z,16.45
2018-08-27T05:56:49.758Z,16.46
2018-08-27T05:57:49.793Z,16.66
2018-08-27T05:58:49.830Z,16.64
2018-08-27T05:59:49.683Z,16.64
2018-08-27T06:00:49.640Z,16.68
2018-08-27T06:01:49.643Z,16.83
2018-08-27T06:02:49.573Z,16.93
2018-08-27T06:03:49.539Z,17.14
2018-08-27T06:04:49.485Z,17.21
2018-08-27T06:05:49.473Z,17.31
2018-08-27T06:06:49.416Z,17.38
2018-08-27T06:07:49.422Z,17.43
2018-08-27T06:08:49.351Z,17.58
2018-08-27T06:09:49.366Z,17.64
2018-08-27T06:10:49.303Z,17.63
2018-08-27T06:11:49.242Z,17.51
2018-08-27T06:12:49.221Z,17.37
2018-08-27T06:13:49.190Z,17.44
2018-08-27T06:14:49.167Z,17.33
2018-08-27T06:15:49.112Z,17.38
2018-08-27T06:16:49.095Z,17.31
2018-08-27T06:17:49.044Z,17.37
2018-08-27T06:18:49.004Z,17.26
2018-08-27T06:19:48.989Z,17.23
2018-08-27T06:20:48.970Z,17.38
2018-08-27T06:21:48.980Z,17.33
2018-08-27T06:22:48.878Z,17.56
2018-08-27T06:23:48.833Z,17.52
2018-08-27T06:24:48.838Z,17.56
2018-08-27T06:25:48.784Z,17.36
2018-08-27T06:26:48.761Z,17.44
2018-08-27T06:27:48.701Z,17.63
2018-08-27T06:28:48.685Z,17.51
2018-08-27T06:29:48.644Z,17.62
2018-08-27T06:30:48.620Z,17.52
2018-08-27T06:31:48.624Z,17.62
2018-08-27T06:32:48.530Z,17.71
2018-08-27T06:33:48.515Z,17.75
2018-08-27T06:34:48.476Z,17.78
2018-08-27T06:35:48.432Z,17.89
2018-08-27T06:36:48.418Z,17.92
2018-08-27T06:37:48.403Z,17.86
2018-08-27T06:38:48.339Z,18.03
2018-08-27T06:39:48.303Z,18.02
2018-08-27T06:40:48.274Z,18.00
2018-08-27T06:41:48.340Z,18.15
2018-08-27T06:42:48.202Z,18.21
2018-08-27T06:43:48.171Z,18.23
2018-08-27T06:44:48.135Z,18.27
2018-08-27T06:45:48.097Z,18.27
2018-08-27T06:46:48.066Z,18.25
2018-08-27T06:47:48.035Z,18.12
2018-08-27T06:48:47.996Z,18.20
2018-08-27T06:49:47.993Z,18.29
2018-08-27T06:50:47.957Z,18.26
2018-08-27T06:51:47.922Z,18.27
2018-08-27T06:52:47.889Z,18.23
2018-08-27T06:53:47.926Z,18.30
2018-08-27T06:54:47.829Z,18.29
2018-08-27T06:55:47.796Z,18.20
2018-08-27T06:56:47.791Z,18.26
2018-08-27T06:57:47.722Z,18.05
2018-08-27T06:58:47.688Z,18.05
2018-08-27T06:59:47.652Z,18.07
2018-08-27T07:00:47.622Z,18.07
2018-08-27T07:01:47.580Z,18.05
2018-08-27T07:02:47.542Z,18.05
2018-08-27T07:03:47.515Z,18.18
2018-08-27T07:04:47.496Z,18.25
2018-08-27T07:05:47.452Z,18.21
2018-08-27T07:06:47.417Z,18.25
2018-08-27T07:07:47.435Z,18.27
2018-08-27T07:08:47.338Z,18.21
2018-08-27T07:09:47.326Z,18.32
2018-08-27T07:10:47.292Z,18.23
2018-08-27T07:11:47.300Z,18.36
2018-08-27T07:12:47.217Z,18.39
2018-08-27T07:13:47.210Z,18.47
2018-08-27T07:14:53.880Z,18.50
2018-08-27T07:15:47.138Z,18.63
2018-08-27T07:16:47.091Z,18.81
2018-08-27T07:17:47.053Z,18.94
2018-08-27T07:18:47.017Z,19.23
2018-08-27T07:19:47.003Z,19.31
2018-08-27T07:20:47.017Z,19.76
2018-08-27T07:21:46.960Z,20.02
2018-08-27T07:22:46.890Z,20.16
2018-08-27T07:23:46.889Z,20.11
2018-08-27T07:24:46.968Z,20.05
2018-08-27T07:25:46.850Z,20.08
2018-08-27T07:26:46.812Z,20.18
2018-08-27T07:27:46.727Z,20.21
2018-08-27T07:28:46.695Z,20.24
2018-08-27T07:29:46.664Z,20.50
2018-08-27T07:30:46.645Z,20.43
2018-08-27T07:31:46.609Z,20.62
2018-08-27T07:32:46.602Z,20.66
2018-08-27T07:33:46.549Z,20.62
2018-08-27T07:34:46.537Z,20.42
2018-08-27T07:35:46.523Z,20.47
2018-08-27T07:36:46.451Z,20.79
2018-08-27T07:37:46.412Z,21.47
2018-08-27T07:38:46.379Z,21.49
2018-08-27T07:39:46.362Z,21.52
2018-08-27T07:40:46.321Z,21.21
2018-08-27T07:41:46.293Z,21.03
2018-08-27T07:42:46.310Z,20.92
2018-08-27T07:43:46.243Z,20.51
2018-08-27T07:44:46.219Z,20.20
2018-08-27T07:45:46.181Z,20.05
2018-08-27T07:46:46.143Z,19.88
2018-08-27T07:47:46.135Z,19.74
2018-08-27T07:48:46.076Z,19.91
2018-08-27T07:49:46.036Z,20.77
2018-08-27T07:50:46.083Z,22.36
2018-08-27T07:51:46.000Z,22.75
2018-08-27T07:52:45.982Z,22.86
2018-08-27T07:53:45.956Z,23.95
2018-08-27T07:54:45.912Z,23.69
2018-08-27T07:55:45.934Z,23.63
2018-08-27T07:56:45.933Z,23.60
2018-08-27T07:57:45.835Z,23.68
2018-08-27T07:58:45.889Z,23.53
2018-08-27T07:59:45.823Z,23.28
2018-08-27T08:00:45.743Z,22.88
2018-08-27T08:01:45.722Z,22.62
2018-08-27T08:02:45.707Z,22.70
2018-08-27T08:03:45.657Z,22.17
2018-08-27T08:04:45.761Z,21.65
2018-08-27T08:05:45.617Z,21.27
2018-08-27T08:06:45.663Z,21.06
2018-08-27T08:07:45.550Z,21.01
2018-08-27T08:08:45.611Z,20.80
2018-08-27T08:09:45.481Z,20.52
2018-08-27T08:10:45.483Z,20.52
2018-08-27T08:11:45.448Z,20.61
2018-08-27T08:12:45.400Z,20.73
2018-08-27T08:13:45.374Z,21.32
2018-08-27T08:14:45.324Z,21.29
2018-08-27T08:15:45.328Z,21.06
2018-08-27T08:16:45.295Z,20.92
2018-08-27T08:17:45.249Z,20.92
2018-08-27T08:18:45.265Z,21.07
2018-08-27T08:19:45.186Z,20.94
2018-08-27T08:20:45.160Z,21.07
2018-08-27T08:21:45.666Z,21.27
2018-08-27T08:22:45.178Z,21.27
2018-08-27T08:23:45.105Z,21.35
2018-08-27T08:24:45.085Z,21.49
2018-08-27T08:25:45.039Z,21.42
2018-08-27T08:26:44.991Z,21.24
2018-08-27T08:27:44.985Z,20.94
2018-08-27T08:28:44.984Z,21.16
2018-08-27T08:29:44.910Z,21.01
2018-08-27T08:30:44.883Z,20.79
2018-08-27T08:31:44.847Z,20.69
2018-08-27T08:32:44.827Z,20.58
2018-08-27T08:33:44.805Z,20.57
2018-08-27T08:34:44.755Z,20.55
2018-08-27T08:35:44.733Z,20.80
2018-08-27T08:36:44.713Z,20.97
2018-08-27T08:37:44.717Z,20.92
2018-08-27T08:38:44.678Z,20.97
2018-08-27T08:39:44.671Z,21.01
2018-08-27T08:40:44.579Z,20.98
2018-08-27T08:41:44.569Z,21.10
2018-08-27T08:42:44.532Z,21.10
2018-08-27T08:43:44.486Z,21.31
2018-08-27T08:44:44.485Z,21.19
2018-08-27T08:45:44.443Z,21.32
2018-08-27T08:46:44.416Z,21.43
2018-08-27T08:47:44.402Z,21.47
2018-08-27T08:48:44.364Z,21.77
2018-08-27T08:49:44.331Z,21.68
2018-08-27T08:50:44.324Z,21.90
2018-08-27T08:51:44.288Z,22.07
2018-08-27T08:52:44.250Z,22.02
2018-08-27T08:53:44.221Z,21.98
2018-08-27T08:54:44.165Z,22.12
2018-08-27T08:55:44.190Z,22.09
2018-08-27T08:56:44.122Z,21.67
2018-08-27T08:57:44.101Z,21.64
2018-08-27T08:58:44.071Z,21.44
2018-08-27T08:59:44.041Z,21.62
2018-08-27T09:00:43.997Z,21.84
2018-08-27T09:01:44.017Z,21.84
2018-08-27T09:02:43.933Z,21.69
2018-08-27T09:03:43.907Z,21.80
2018-08-27T09:04:43.874Z,21.99
2018-08-27T09:05:43.884Z,22.03
2018-08-27T09:06:43.829Z,22.06
2018-08-27T09:07:43.804Z,22.18
2018-08-27T09:08:43.793Z,22.37
2018-08-27T09:09:43.760Z,22.67
2018-08-27T09:10:43.745Z,22.35
2018-08-27T09:11:43.675Z,22.28
2018-08-27T09:12:43.652Z,22.39
2018-08-27T09:13:43.618Z,22.25
2018-08-27T09:14:43.590Z,22.14
2018-08-27T09:15:43.565Z,22.06
2018-08-27T09:16:43.587Z,22.21
2018-08-27T09:17:43.563Z,22.07
2018-08-27T09:18:43.493Z,22.31
2018-08-27T09:19:43.456Z,22.55
2018-08-27T09:20:43.421Z,23.10
2018-08-27T09:21:43.382Z,23.12
2018-08-27T09:22:43.356Z,23.25
2018-08-27T09:23:43.355Z,23.31
2018-08-27T09:24:43.301Z,23.12
2018-08-27T09:25:43.278Z,23.05
2018-08-27T09:26:43.247Z,23.10
2018-08-27T09:27:43.222Z,22.94
2018-08-27T09:28:43.187Z,22.91
2018-08-27T09:29:43.167Z,22.57
2018-08-27T09:30:43.136Z,22.43
2018-08-27T09:31:43.095Z,22.40
2018-08-27T09:32:43.084Z,22.35
2018-08-27T09:33:43.286Z,22.20
2018-08-27T09:34:43.010Z,22.31
2018-08-27T09:35:43.239Z,22.36
2018-08-27T09:36:43.016Z,22.14
2018-08-27T09:37:43.001Z,22.30
2018-08-27T09:38:42.914Z,22.30
2018-08-27T09:39:42.907Z,22.27
2018-08-27T09:40:42.839Z,22.21
2018-08-27T09:41:42.900Z,22.25
2018-08-27T09:42:42.791Z,22.43
2018-08-27T09:43:42.759Z,22.52
2018-08-27T09:44:42.735Z,22.55
2018-08-27T09:45:42.791Z,22.70
2018-08-27T09:46:42.694Z,22.85
2018-08-27T09:47:42.657Z,22.76
2018-08-27T09:48:42.731Z,22.70
2018-08-27T09:49:42.586Z,22.58
2018-08-27T09:50:42.572Z,22.67
2018-08-27T09:51:42.551Z,22.45
2018-08-27T09:52:42.581Z,22.64
2018-08-27T09:53:42.469Z,22.72
2018-08-27T09:54:42.463Z,22.88
2018-08-27T09:55:42.421Z,23.25
2018-08-27T09:56:42.408Z,23.63
2018-08-27T09:57:42.385Z,24.87
2018-08-27T09:58:42.382Z,25.92
2018-08-27T09:59:42.299Z,26.94
2018-08-27T10:00:42.375Z,27.25
2018-08-27T10:01:42.278Z,27.51
2018-08-27T10:02:42.234Z,27.14
2018-08-27T10:03:42.188Z,26.94
2018-08-27T10:04:42.191Z,27.04
2018-08-27T10:05:42.144Z,26.89
2018-08-27T10:06:42.129Z,26.89
2018-08-27T10:07:42.085Z,27.10
2018-08-27T10:08:42.067Z,27.19
2018-08-27T10:09:42.034Z,27.81
2018-08-27T10:10:42.009Z,27.78
2018-08-27T10:11:41.975Z,28.03
2018-08-27T10:12:42.040Z,28.37
2018-08-27T10:13:41.934Z,28.46
2018-08-27T10:14:41.906Z,28.68
2018-08-27T10:15:41.904Z,28.36
2018-08-27T10:16:41.855Z,28.71
2018-08-27T10:17:41.844Z,28.74
2018-08-27T10:18:41.820Z,28.11
2018-08-27T10:19:41.794Z,27.34
2018-08-27T10:20:41.874Z,26.62
2018-08-27T10:21:41.757Z,25.99
2018-08-27T10:22:41.756Z,25.32
2018-08-27T10:23:41.697Z,25.15
2018-08-27T10:24:41.673Z,24.78
2018-08-27T10:25:41.660Z,24.53
2018-08-27T10:26:41.624Z,24.53
2018-08-27T10:27:41.612Z,24.34
2018-08-27T10:28:41.593Z,24.12
2018-08-27T10:29:41.558Z,24.20
2018-08-27T10:30:41.530Z,23.72
2018-08-27T10:31:41.521Z,23.68
2018-08-27T10:32:41.481Z,23.42
2018-08-27T10:33:41.467Z,23.42
2018-08-27T10:34:41.457Z,23.65
2018-08-27T10:35:41.405Z,23.33
2018-08-27T10:36:41.419Z,23.27
2018-08-27T10:37:41.359Z,23.20
2018-08-27T10:38:41.359Z,23.00
2018-08-27T10:39:41.301Z,23.19
2018-08-27T10:40:41.287Z,23.31
2018-08-27T10:41:41.247Z,23.57
2018-08-27T10:42:41.286Z,23.88
2018-08-27T10:43:41.211Z,24.12
2018-08-27T10:44:41.170Z,24.68
2018-08-27T10:45:41.313Z,25.27
2018-08-27T10:46:41.140Z,24.99
2018-08-27T10:47:41.102Z,24.87
2018-08-27T10:48:41.074Z,24.88
2018-08-27T10:49:41.053Z,25.15
2018-08-27T10:50:41.023Z,25.24
2018-08-27T10:51:40.995Z,25.21
2018-08-27T10:52:40.972Z,25.35
2018-08-27T10:53:40.947Z,25.30
2018-08-27T10:54:40.926Z,25.90
2018-08-27T10:55:40.897Z,26.54
2018-08-27T10:56:40.869Z,26.82
2018-08-27T10:57:40.858Z,26.92
2018-08-27T10:58:40.818Z,27.06
2018-08-27T10:59:40.809Z,26.73
2018-08-27T11:00:40.767Z,27.07
2018-08-27T11:01:40.772Z,27.46
2018-08-27T11:02:40.780Z,27.67
2018-08-27T11:03:40.710Z,27.94
2018-08-27T11:04:40.718Z,27.57
2018-08-27T11:05:40.635Z,27.59
2018-08-27T11:06:40.625Z,27.19
2018-08-27T11:07:40.634Z,27.18
2018-08-27T11:08:40.573Z,27.57
2018-08-27T11:09:40.560Z,27.72
2018-08-27T11:10:40.558Z,27.47
2018-08-27T11:11:40.499Z,27.21
2018-08-27T11:12:40.480Z,26.97
2018-08-27T11:13:40.457Z,26.97
2018-08-27T11:14:40.426Z,27.25
2018-08-27T11:15:40.398Z,27.97
2018-08-27T11:16:40.372Z,28.18
2018-08-27T11:17:40.351Z,28.29
2018-08-27T11:18:40.324Z,28.27
2018-08-27T11:19:40.386Z,27.82
2018-08-27T11:20:40.518Z,27.41
2018-08-27T11:21:40.285Z,26.72
2018-08-27T11:22:40.237Z,26.81
2018-08-27T11:23:40.263Z,27.10
2018-08-27T11:24:40.239Z,26.95
2018-08-27T11:25:40.171Z,27.36
2018-08-27T11:26:40.236Z,27.00
2018-08-27T11:27:40.127Z,26.81
2018-08-27T11:28:40.093Z,26.97
2018-08-27T11:29:40.084Z,26.84
2018-08-27T11:30:40.061Z,27.02
2018-08-27T11:31:40.097Z,27.18
2018-08-27T11:32:40.016Z,27.36
2018-08-27T11:33:39.991Z,26.97
2018-08-27T11:34:39.975Z,26.62
2018-08-27T11:35:39.968Z,26.87
2018-08-27T11:36:39.943Z,26.84
2018-08-27T11:37:39.912Z,26.85
2018-08-27T11:38:39.891Z,26.95
2018-08-27T11:39:39.873Z,26.92
2018-08-27T11:40:39.856Z,26.77
2018-08-27T11:41:39.803Z,26.73
2018-08-27T11:42:39.798Z,26.76
2018-08-27T11:43:39.772Z,26.66
2018-08-27T11:44:39.747Z,26.77
2018-08-27T11:45:39.720Z,26.63
2018-08-27T11:46:39.705Z,26.70
2018-08-27T11:47:39.672Z,26.89
2018-08-27T11:48:39.661Z,27.09
2018-08-27T11:49:39.649Z,27.14
2018-08-27T11:50:39.640Z,26.95
2018-08-27T11:51:39.596Z,26.85
2018-08-27T11:52:39.660Z,27.03
2018-08-27T11:53:39.558Z,26.87
2018-08-27T11:54:39.542Z,26.84
2018-08-27T11:55:39.507Z,26.62
2018-08-27T11:56:39.487Z,26.70
2018-08-27T11:57:39.466Z,26.65
2018-08-27T11:58:39.494Z,26.43
2018-08-27T11:59:39.412Z,25.99
2018-08-27T12:00:39.382Z,25.83
2018-08-27T12:01:39.370Z,25.73
2018-08-27T12:02:39.352Z,25.40
2018-08-27T12:03:39.329Z,24.87
2018-08-27T12:04:39.303Z,24.60
2018-08-27T12:05:39.294Z,24.40
2018-08-27T12:06:39.269Z,24.40
2018-08-27T12:07:39.267Z,24.43
2018-08-27T12:08:39.219Z,24.40
2018-08-27T12:09:39.212Z,24.47
2018-08-27T12:10:39.204Z,24.49
2018-08-27T12:11:39.145Z,24.55
2018-08-27T12:12:39.139Z,24.49
2018-08-27T12:13:39.099Z,24.68
2018-08-27T12:14:39.067Z,24.90
2018-08-27T12:15:39.053Z,25.13
2018-08-27T12:16:39.067Z,25.40
2018-08-27T12:17:38.995Z,25.27
2018-08-27T12:18:38.970Z,24.91
2018-08-27T12:19:38.949Z,24.91
2018-08-27T12:20:38.933Z,24.85
2018-08-27T12:21:38.898Z,24.87
2018-08-27T12:22:38.872Z,24.88
2018-08-27T12:23:38.908Z,24.84
2018-08-27T12:24:38.832Z,25.02
2018-08-27T12:25:38.894Z,25.00
2018-08-27T12:26:38.777Z,24.78
2018-08-27T12:27:38.760Z,24.61
2018-08-27T12:28:38.745Z,24.52
2018-08-27T12:29:38.799Z,24.10
2018-08-27T12:30:38.685Z,24.15
2018-08-27T12:31:38.670Z,24.09
2018-08-27T12:32:38.653Z,23.80
2018-08-27T12:33:38.609Z,23.84
2018-08-27T12:34:38.593Z,23.61
2018-08-27T12:35:38.581Z,23.73
2018-08-27T12:36:38.532Z,23.84
2018-08-27T12:37:38.570Z,23.65
2018-08-27T12:38:38.468Z,23.87
2018-08-27T12:39:38.473Z,23.88
2018-08-27T12:40:38.593Z,23.76
2018-08-27T12:41:38.393Z,23.90
2018-08-27T12:42:38.378Z,24.45
2018-08-27T12:43:38.449Z,25.08
2018-08-27T12:44:38.319Z,25.24
2018-08-27T12:45:38.313Z,25.54
2018-08-27T12:46:38.265Z,25.58
2018-08-27T12:47:38.260Z,25.85
2018-08-27T12:48:38.344Z,25.79
2018-08-27T12:49:38.192Z,25.76
2018-08-27T12:50:38.156Z,26.18
2018-08-27T12:51:38.329Z,26.29
2018-08-27T12:52:38.118Z,26.15
2018-08-27T12:53:38.101Z,26.33
2018-08-27T12:54:38.117Z,26.13
2018-08-27T12:55:38.030Z,25.72
2018-08-27T12:56:38.012Z,25.55
2018-08-27T12:57:38.021Z,25.54
2018-08-27T12:58:38.090Z,25.58
2018-08-27T12:59:37.928Z,25.99
2018-08-27T13:00:37.930Z,26.12